createdAt,value
2022-12-23T00:01:09.350Z,100476.88
2022-12-23T00:03:36.573Z,100479.50
2022-12-23T00:06:13.475Z,100472.44
2022-12-23T00:08:41.561Z,100482.19
2022-12-23T00:11:15.855Z,100470.78
2022-12-23T00:14:02.398Z,100476.84
2022-12-23T00:16:30.082Z,100489.19
2022-12-23T00:18:57.255Z,100489.19
2022-12-23T00:21:24.537Z,100499.09
2022-12-23T00:23:52.122Z,100506.19
2022-12-23T00:26:26.090Z,100506.97
2022-12-23T00:28:55.117Z,100504.31
2022-12-23T00:31:22.344Z,100514.06
2022-12-23T00:33:53.290Z,100508.88
2022-12-23T00:36:28.018Z,100512.41
2022-12-23T00:39:15.701Z,100514.94
2022-12-23T00:42:01.615Z,100517.81
2022-12-23T00:44:29.114Z,100518.50
2022-12-23T00:46:56.138Z,100521.44
2022-12-23T00:49:42.026Z,100512.50
2022-12-23T00:52:15.721Z,100512.63
2022-12-23T00:54:43.191Z,100522.31
2022-12-23T00:57:10.476Z,100517.22
2022-12-23T00:59:37.688Z,100525.03
2022-12-23T01:02:23.744Z,100525.94
2022-12-23T01:05:09.792Z,100532.16
2022-12-23T01:07:36.885Z,100532.34
2022-12-23T01:10:04.473Z,100538.56
2022-12-23T01:12:31.557Z,100537.63
2022-12-23T01:14:58.647Z,100528.91
2022-12-23T01:17:25.760Z,100536.84
2022-12-23T01:19:53.020Z,100539.53
2022-12-23T01:22:20.129Z,100540.41
2022-12-23T01:24:47.221Z,100550.91
2022-12-23T01:27:14.327Z,100556.19
2022-12-23T01:29:41.471Z,100558.13
2022-12-23T01:32:08.638Z,100554.59
2022-12-23T01:34:37.378Z,100561.56
2022-12-23T01:37:05.097Z,100563.44
2022-12-23T01:39:32.346Z,100565.22
2022-12-23T01:42:18.127Z,100572.31
2022-12-23T01:45:21.099Z,100571.41
2022-12-23T01:48:18.551Z,100566.16
2022-12-23T01:50:49.367Z,100575.03
2022-12-23T01:53:30.109Z,100580.47
2022-12-23T01:56:23.948Z,100583.06
2022-12-23T01:59:11.259Z,100582.22
2022-12-23T02:01:57.165Z,100590.16
2022-12-23T02:04:26.489Z,100598.22
2022-12-23T02:07:12.465Z,100594.72
2022-12-23T02:09:41.073Z,100610.59
2022-12-23T02:12:34.389Z,100604.50
2022-12-23T02:15:26.897Z,100613.38
2022-12-23T02:18:24.851Z,100616.00
2022-12-23T02:21:32.519Z,100614.22
2022-12-23T02:24:36.027Z,100621.25
2022-12-23T02:27:16.135Z,100624.06
2022-12-23T02:30:04.853Z,100631.06
2022-12-23T02:32:57.024Z,100639.06
2022-12-23T02:35:41.011Z,100640.91
2022-12-23T02:38:22.870Z,100639.28
2022-12-23T02:41:25.255Z,100637.41
2022-12-23T02:44:01.824Z,100651.72
2022-12-23T02:46:50.242Z,100645.50
2022-12-23T02:49:35.552Z,100651.84
2022-12-23T02:52:08.907Z,100654.41
2022-12-23T02:54:44.276Z,100658.03
2022-12-23T02:57:13.273Z,100668.00
2022-12-23T02:59:47.278Z,100672.25
2022-12-23T03:02:14.640Z,100679.47
2022-12-23T03:04:42.320Z,100678.81
2022-12-23T03:07:41.710Z,100680.63
2022-12-23T03:10:36.840Z,100680.69
2022-12-23T03:13:20.430Z,100678.09
2022-12-23T03:16:10.582Z,100681.63
2022-12-23T03:19:24.508Z,100680.16
2022-12-23T03:22:08.589Z,100674.88
2022-12-23T03:25:08.045Z,100669.81
2022-12-23T03:27:51.764Z,100674.31
2022-12-23T03:30:21.311Z,100677.03
2022-12-23T03:33:04.074Z,100674.50
2022-12-23T03:35:40.224Z,100672.56
2022-12-23T03:38:08.829Z,100672.56
2022-12-23T03:40:48.248Z,100671.69
2022-12-23T03:43:28.706Z,100676.13
2022-12-23T03:46:01.843Z,100685.88
2022-12-23T03:48:53.723Z,100683.28
2022-12-23T03:51:29.363Z,100679.91
2022-12-23T03:54:05.436Z,100685.16
2022-12-23T03:56:56.768Z,100679.81
2022-12-23T03:59:28.750Z,100672.81
2022-12-23T04:02:04.382Z,100673.69
2022-12-23T04:05:07.681Z,100690.44
2022-12-23T04:07:45.174Z,100697.50
2022-12-23T04:10:13.899Z,100700.16
2022-12-23T04:12:41.205Z,100700.22
2022-12-23T04:15:12.851Z,100709.94
2022-12-23T04:17:40.296Z,100713.38
2022-12-23T04:20:08.397Z,100719.59
2022-12-23T04:22:35.578Z,100724.88
2022-12-23T04:25:02.735Z,100725.81
2022-12-23T04:27:30.013Z,100729.38
2022-12-23T04:29:57.069Z,100738.25
2022-12-23T04:32:24.116Z,100732.03
2022-12-23T04:34:51.227Z,100728.44
2022-12-23T04:37:18.440Z,100736.41
2022-12-23T04:39:45.556Z,100727.53
2022-12-23T04:42:12.697Z,100728.31
2022-12-23T04:44:39.789Z,100723.88
2022-12-23T04:47:06.955Z,100730.09
2022-12-23T04:49:34.122Z,100725.75
2022-12-23T04:52:01.300Z,100722.09
2022-12-23T04:54:28.456Z,100713.31
2022-12-23T04:56:55.671Z,100712.41
2022-12-23T04:59:22.949Z,100706.19
2022-12-23T05:01:50.264Z,100712.38
2022-12-23T05:04:17.608Z,100717.66
2022-12-23T05:06:44.751Z,100714.06
2022-12-23T05:09:11.817Z,100717.63
2022-12-23T05:11:42.303Z,100705.25
2022-12-23T05:14:13.459Z,100713.16
2022-12-23T05:16:40.668Z,100716.69
2022-12-23T05:19:08.168Z,100723.72
2022-12-23T05:21:35.225Z,100717.59
2022-12-23T05:24:02.358Z,100724.63
2022-12-23T05:26:29.523Z,100736.13
2022-12-23T05:28:56.732Z,100735.22
2022-12-23T05:31:23.932Z,100741.47
2022-12-23T05:33:51.134Z,100744.91
2022-12-23T05:36:18.267Z,100740.53
2022-12-23T05:38:45.417Z,100745.81
2022-12-23T05:41:12.586Z,100750.34
2022-12-23T05:43:39.722Z,100756.53
2022-12-23T05:46:06.781Z,100763.63
2022-12-23T05:48:34.037Z,100760.03
2022-12-23T05:51:01.256Z,100760.13
2022-12-23T05:53:28.433Z,100758.25
2022-12-23T05:55:55.627Z,100760.13
2022-12-23T05:58:22.752Z,100768.00
2022-12-23T06:00:49.890Z,100754.69
2022-12-23T06:03:17.164Z,100751.28
2022-12-23T06:05:44.450Z,100753.91
2022-12-23T06:08:11.588Z,100752.09
2022-12-23T06:10:38.683Z,100750.31
2022-12-23T06:13:08.139Z,100750.31
2022-12-23T06:16:00.605Z,100757.38
2022-12-23T06:18:27.694Z,100755.56
2022-12-23T06:20:54.838Z,100741.47
2022-12-23T06:23:21.941Z,100730.00
2022-12-23T06:25:49.070Z,100736.25
2022-12-23T06:28:16.429Z,100734.41
2022-12-23T06:30:43.549Z,100734.41
2022-12-23T06:33:10.688Z,100732.59
2022-12-23T06:35:37.758Z,100729.06
2022-12-23T06:38:10.282Z,100734.47
2022-12-23T06:40:39.137Z,100739.81
2022-12-23T06:43:06.448Z,100738.91
2022-12-23T06:45:33.644Z,100740.72
2022-12-23T06:48:00.766Z,100756.56
2022-12-23T06:50:27.893Z,100762.72
2022-12-23T06:52:54.985Z,100761.91
2022-12-23T06:55:22.077Z,100761.91
2022-12-23T06:57:49.263Z,100763.72
2022-12-23T07:00:17.001Z,100768.19
2022-12-23T07:02:44.243Z,100770.84
2022-12-23T07:05:11.433Z,100772.47
2022-12-23T07:07:38.533Z,100773.50
2022-12-23T07:10:07.783Z,100780.50
2022-12-23T07:12:34.806Z,100782.19
2022-12-23T07:15:01.928Z,100783.09
2022-12-23T07:17:29.146Z,100779.72
2022-12-23T07:19:56.287Z,100793.72
2022-12-23T07:22:23.385Z,100792.81
2022-12-23T07:24:50.484Z,100793.84
2022-12-23T07:27:17.589Z,100797.38
2022-12-23T07:29:44.709Z,100800.03
2022-12-23T07:32:11.909Z,100798.28
2022-12-23T07:34:39.081Z,100798.19
2022-12-23T07:37:06.163Z,100792.97
2022-12-23T07:39:34.458Z,100800.94
2022-12-23T07:42:33.829Z,100793.72
2022-12-23T07:44:48.754Z,100783.22
2022-12-23T07:47:15.930Z,100771.69
2022-12-23T07:49:42.936Z,100778.78
2022-12-23T07:52:09.993Z,100769.00
2022-12-23T07:54:37.086Z,100775.16
2022-12-23T07:57:04.270Z,100766.44
2022-12-23T07:59:31.350Z,100766.34
2022-12-23T08:01:58.630Z,100770.72
2022-12-23T08:04:25.891Z,100767.22
2022-12-23T08:06:53.005Z,100770.84
2022-12-23T08:09:20.054Z,100774.31
2022-12-23T08:11:47.106Z,100769.03
2022-12-23T08:14:14.173Z,100766.25
2022-12-23T08:16:43.898Z,100761.91
2022-12-23T08:19:11.614Z,100755.72
2022-12-23T08:21:38.672Z,100762.69
2022-12-23T08:24:06.080Z,100762.00
2022-12-23T08:26:33.279Z,100756.59
2022-12-23T08:29:01.251Z,100764.50
2022-12-23T08:31:31.867Z,100763.63
2022-12-23T08:34:01.034Z,100761.03
2022-12-23T08:36:36.225Z,100750.41
2022-12-23T08:39:08.260Z,100741.66
2022-12-23T08:41:42.363Z,100738.03
2022-12-23T08:44:09.849Z,100737.06
2022-12-23T08:46:38.252Z,100743.25
2022-12-23T08:49:06.498Z,100748.44
2022-12-23T08:51:35.424Z,100741.38
2022-12-23T08:54:03.429Z,100733.56
2022-12-23T08:56:35.996Z,100728.19
2022-12-23T08:59:04.388Z,100728.13
2022-12-23T09:01:34.537Z,100717.50
2022-12-23T09:04:06.997Z,100714.06
2022-12-23T09:06:41.144Z,100710.50
2022-12-23T09:09:12.087Z,100708.66
2022-12-23T09:11:39.755Z,100715.72
2022-12-23T09:14:08.589Z,100708.75
2022-12-23T09:16:35.960Z,100697.91
2022-12-23T09:19:03.514Z,100701.47
2022-12-23T09:21:30.851Z,100711.38
2022-12-23T09:23:57.982Z,100701.63
2022-12-23T09:26:29.111Z,100693.59
2022-12-23T09:28:57.269Z,100691.78
2022-12-23T09:31:30.485Z,100697.19
2022-12-23T09:34:01.428Z,100698.78
2022-12-23T09:36:29.828Z,100698.81
2022-12-23T09:38:58.416Z,100703.06
2022-12-23T09:41:39.282Z,100699.66
2022-12-23T09:44:50.298Z,100698.72
2022-12-23T09:47:22.316Z,100697.88
2022-12-23T09:49:59.333Z,100694.28
2022-12-23T09:52:40.552Z,100690.78
2022-12-23T09:55:12.059Z,100680.03
2022-12-23T09:58:01.054Z,100670.34
2022-12-23T10:00:42.103Z,100659.78
2022-12-23T10:03:31.169Z,100646.56
2022-12-23T10:06:22.877Z,100640.25
2022-12-23T10:08:55.178Z,100639.22
2022-12-23T10:11:45.055Z,100630.38
2022-12-23T10:14:28.153Z,100621.63
2022-12-23T10:17:07.163Z,100619.72
2022-12-23T10:19:44.423Z,100618.84
2022-12-23T10:22:26.752Z,100618.84
2022-12-23T10:24:57.275Z,100612.59
2022-12-23T10:27:39.843Z,100603.75
2022-12-23T10:33:47.134Z,100608.97
2022-12-23T10:36:40.683Z,100611.53
2022-12-23T10:39:49.914Z,100603.59
2022-12-23T10:42:37.020Z,100600.06
2022-12-23T10:45:23.507Z,100590.44
2022-12-23T10:48:33.606Z,100585.09
2022-12-23T10:51:14.162Z,100591.09
2022-12-23T10:53:51.340Z,100585.09
2022-12-23T10:56:19.993Z,100582.22
2022-12-23T10:58:53.950Z,100585.91
2022-12-23T11:01:26.971Z,100576.09
2022-12-23T11:04:07.883Z,100576.78
2022-12-23T11:06:42.452Z,100572.34
2022-12-23T11:09:19.328Z,100565.25
2022-12-23T11:12:08.439Z,100572.44
2022-12-23T11:14:51.992Z,100560.03
2022-12-23T11:17:36.008Z,100557.28
2022-12-23T11:20:14.770Z,100554.59
2022-12-23T11:22:58.277Z,100553.63
2022-12-23T11:25:27.698Z,100557.25
2022-12-23T11:28:10.785Z,100552.63
2022-12-23T11:31:05.604Z,100550.84
2022-12-23T11:33:45.683Z,100554.41
2022-12-23T11:36:12.719Z,100542.00
2022-12-23T11:39:10.380Z,100531.31
2022-12-23T11:41:49.340Z,100519.75
2022-12-23T11:44:38.611Z,100505.63
2022-12-23T11:47:34.681Z,100486.22
2022-12-23T11:50:20.123Z,100474.72
2022-12-23T11:52:55.159Z,100473.72
2022-12-23T11:55:32.849Z,100470.13
2022-12-23T11:58:02.453Z,100466.53
2022-12-23T12:00:39.849Z,100448.81
2022-12-23T12:03:14.472Z,100453.34
2022-12-23T12:05:51.169Z,100449.69
2022-12-23T12:08:28.128Z,100440.75
2022-12-23T12:11:12.028Z,100441.72
2022-12-23T12:13:42.313Z,100434.75
2022-12-23T12:16:30.338Z,100432.16
2022-12-23T12:19:05.985Z,100432.03
2022-12-23T12:21:38.252Z,100435.50
2022-12-23T12:24:20.393Z,100427.66
2022-12-23T12:26:54.448Z,100430.22
2022-12-23T12:29:44.499Z,100425.94
2022-12-23T12:32:51.558Z,100410.00
2022-12-23T12:35:53.470Z,100407.34
2022-12-23T12:38:33.024Z,100386.09
2022-12-23T12:41:30.533Z,100376.22
2022-12-23T12:44:17.327Z,100375.41
2022-12-23T12:46:57.277Z,100363.19
2022-12-23T12:49:39.624Z,100349.03
2022-12-23T12:52:24.779Z,100345.47
2022-12-23T12:55:23.929Z,100341.03
2022-12-23T12:57:51.094Z,100335.66
2022-12-23T13:00:23.713Z,100332.25
2022-12-23T13:02:56.493Z,100331.38
2022-12-23T13:05:53.772Z,100324.34
2022-12-23T13:08:39.479Z,100320.88
2022-12-23T13:11:16.632Z,100310.25
2022-12-23T13:14:09.759Z,100315.41
2022-12-23T13:17:15.610Z,100312.78
2022-12-23T13:20:05.705Z,100311.00
2022-12-23T13:22:34.605Z,100309.28
2022-12-23T13:25:20.798Z,100311.81
2022-12-23T13:27:57.669Z,100311.94
2022-12-23T13:30:31.867Z,100304.78
2022-12-23T13:33:41.909Z,100300.50
2022-12-23T13:36:52.592Z,100290.81
2022-12-23T13:39:31.248Z,100294.31
2022-12-23T13:42:05.672Z,100286.34
2022-12-23T13:44:34.880Z,100292.53
2022-12-23T13:47:49.005Z,100300.44
2022-12-23T13:50:43.651Z,100297.03
2022-12-23T13:53:49.905Z,100285.69
2022-12-23T13:56:46.184Z,100265.38
2022-12-23T13:59:16.277Z,100256.44
2022-12-23T14:01:48.201Z,100247.72
2022-12-23T14:04:57.819Z,100245.06
2022-12-23T14:07:25.114Z,100234.53
2022-12-23T14:09:57.373Z,100224.75
2022-12-23T14:12:30.817Z,100204.38
2022-12-23T14:15:25.118Z,100204.38
2022-12-23T14:18:29.262Z,100209.69
2022-12-23T14:21:05.896Z,100206.97
2022-12-23T14:23:50.355Z,100207.72
2022-12-23T14:26:46.797Z,100218.34
2022-12-23T14:29:43.548Z,100212.03
2022-12-23T14:32:29.632Z,100193.41
2022-12-23T14:35:42.896Z,100194.22
2022-12-23T14:38:15.890Z,100197.78
2022-12-23T14:40:42.873Z,100202.16
2022-12-23T14:43:37.701Z,100206.66
2022-12-23T14:46:08.304Z,100201.41
2022-12-23T14:48:47.808Z,100206.72
2022-12-23T14:51:14.768Z,100211.13
2022-12-23T14:54:00.024Z,100227.09
2022-12-23T14:56:39.311Z,100227.03
2022-12-23T14:59:38.440Z,100218.16
2022-12-23T15:02:19.434Z,100214.69
2022-12-23T15:04:58.166Z,100204.06
2022-12-23T15:07:34.910Z,100200.50
2022-12-23T15:10:17.221Z,100202.34
2022-12-23T15:12:52.567Z,100214.69
2022-12-23T15:15:25.142Z,100186.56
2022-12-23T15:18:09.855Z,100186.41
2022-12-23T15:20:37.000Z,100181.25
2022-12-23T15:23:12.482Z,100183.84
2022-12-23T15:25:49.222Z,100184.06
2022-12-23T15:28:23.151Z,100190.13
2022-12-23T15:30:55.045Z,100190.19
2022-12-23T15:34:01.705Z,100186.66
2022-12-23T15:36:18.522Z,100191.22
2022-12-23T15:38:45.650Z,100176.91
2022-12-23T15:41:18.528Z,100174.31
2022-12-23T15:43:45.777Z,100180.59
2022-12-23T15:46:26.877Z,100191.97
2022-12-23T15:48:57.177Z,100167.28
2022-12-23T15:52:05.704Z,100170.91
2022-12-23T15:54:29.459Z,100178.88
2022-12-23T15:56:59.121Z,100195.53
2022-12-23T15:59:33.845Z,100202.63
2022-12-23T16:03:00.536Z,100192.13
2022-12-23T16:05:37.757Z,100197.38
2022-12-23T16:08:15.164Z,100206.09
2022-12-23T16:11:13.205Z,100215.97
2022-12-23T16:13:47.339Z,100209.75
2022-12-23T16:16:39.031Z,100197.53
2022-12-23T16:19:26.936Z,100210.56
2022-12-23T16:21:54.085Z,100216.66
2022-12-23T16:24:21.381Z,100211.47
2022-12-23T16:26:48.482Z,100196.47
2022-12-23T16:29:15.714Z,100196.47
2022-12-23T16:31:49.822Z,100188.44
2022-12-23T16:34:19.369Z,100179.63
2022-12-23T16:36:46.567Z,100183.19
2022-12-23T16:39:22.228Z,100185.91
2022-12-23T16:41:50.312Z,100201.72
2022-12-23T16:44:17.526Z,100197.38
2022-12-23T16:46:48.993Z,100200.00
2022-12-23T16:49:20.359Z,100199.94
2022-12-23T16:51:48.457Z,100202.69
2022-12-23T16:54:18.579Z,100203.50
2022-12-23T16:56:46.795Z,100207.09
2022-12-23T16:59:14.670Z,100206.16
2022-12-23T17:01:46.299Z,100207.91
2022-12-23T17:04:13.507Z,100208.06
2022-12-23T17:06:41.420Z,100218.56
2022-12-23T17:09:10.045Z,100218.50
2022-12-23T17:11:45.475Z,100224.59
2022-12-23T17:14:21.103Z,100221.16
2022-12-23T17:16:49.271Z,100224.75
2022-12-23T17:19:21.896Z,100223.00
2022-12-23T17:22:00.235Z,100216.72
2022-12-23T17:24:27.671Z,100215.03
2022-12-23T17:26:56.775Z,100240.66
2022-12-23T17:29:24.067Z,100231.16
2022-12-23T17:31:51.708Z,100226.53
2022-12-23T17:34:24.677Z,100225.66
2022-12-23T17:36:52.867Z,100226.53
2022-12-23T17:39:21.395Z,100223.72
2022-12-23T17:41:49.373Z,100221.84
2022-12-23T17:44:18.078Z,100217.41
2022-12-23T17:46:46.229Z,100218.41
2022-12-23T17:49:13.715Z,100223.56
2022-12-23T17:51:41.954Z,100220.06
2022-12-23T17:54:22.825Z,100227.91
2022-12-23T17:56:50.823Z,100220.69
2022-12-23T17:59:17.979Z,100224.22
2022-12-23T18:01:45.266Z,100215.28
2022-12-23T18:04:12.477Z,100223.09
2022-12-23T18:06:39.629Z,100219.53
2022-12-23T18:09:06.665Z,100229.16
2022-12-23T18:11:43.823Z,100224.63
2022-12-23T18:14:19.960Z,100229.63
2022-12-23T18:16:47.184Z,100235.78
2022-12-23T18:19:20.535Z,100240.19
2022-12-23T18:21:48.340Z,100246.16
2022-12-23T18:24:16.771Z,100238.19
2022-12-23T18:26:44.500Z,100242.25
2022-12-23T18:29:11.738Z,100250.00
2022-12-23T18:31:51.004Z,100242.03
2022-12-23T18:34:18.561Z,100246.31
2022-12-23T18:36:46.246Z,100255.06
2022-12-23T18:39:13.395Z,100259.44
2022-12-23T18:41:40.475Z,100264.75
2022-12-23T18:44:20.299Z,100260.16
2022-12-23T18:46:48.567Z,100268.06
2022-12-23T18:49:15.758Z,100265.25
2022-12-23T18:51:42.896Z,100271.59
2022-12-23T18:54:15.213Z,100285.72
2022-12-23T18:56:42.969Z,100278.31
2022-12-23T18:59:17.409Z,100276.56
2022-12-23T19:01:44.879Z,100279.28
2022-12-23T19:04:12.218Z,100285.47
2022-12-23T19:06:39.558Z,100295.22
2022-12-23T19:09:07.958Z,100292.41
2022-12-23T19:11:35.058Z,100290.66
2022-12-23T19:14:03.022Z,100289.06
2022-12-23T19:16:30.236Z,100292.47
2022-12-23T19:18:57.414Z,100292.53
2022-12-23T19:21:24.548Z,100289.81
2022-12-23T19:23:51.660Z,100287.97
2022-12-23T19:26:18.717Z,100284.53
2022-12-23T19:28:48.115Z,100291.59
2022-12-23T19:31:16.675Z,100291.59
2022-12-23T19:33:46.712Z,100303.16
2022-12-23T19:36:22.490Z,100307.59
2022-12-23T19:38:49.811Z,100320.72
2022-12-23T19:41:17.464Z,100321.63
2022-12-23T19:43:46.351Z,100323.44
2022-12-23T19:46:15.832Z,100330.59
2022-12-23T19:48:43.330Z,100334.00
2022-12-23T19:51:14.319Z,100333.34
2022-12-23T19:53:42.773Z,100342.19
2022-12-23T19:56:16.306Z,100333.25
2022-12-23T19:58:44.649Z,100345.41
2022-12-23T20:01:17.241Z,100354.19
2022-12-23T20:03:46.788Z,100346.34
2022-12-23T20:06:18.303Z,100359.63
2022-12-23T20:08:45.732Z,100367.69
2022-12-23T20:11:23.369Z,100361.41
2022-12-23T20:13:55.057Z,100356.09
2022-12-23T20:16:23.388Z,100361.34
2022-12-23T20:18:50.645Z,100368.28
2022-12-23T20:21:18.437Z,100371.06
2022-12-23T20:23:45.637Z,100377.31
2022-12-23T20:26:14.386Z,100376.31
2022-12-23T20:28:41.876Z,100381.63
2022-12-23T20:31:24.743Z,100383.38
2022-12-23T20:33:53.318Z,100388.75
2022-12-23T20:36:27.356Z,100395.78
2022-12-23T20:38:55.982Z,100386.97
2022-12-23T20:41:26.816Z,100400.19
2022-12-23T20:44:32.389Z,100394.16
2022-12-23T20:46:42.025Z,100399.31
2022-12-23T20:49:09.129Z,100407.19
2022-12-23T20:51:36.191Z,100413.47
2022-12-23T20:54:03.254Z,100422.38
2022-12-23T20:56:31.507Z,100427.63
2022-12-23T20:59:00.074Z,100429.53
2022-12-23T21:01:30.812Z,100437.34
2022-12-23T21:04:00.583Z,100447.16
2022-12-23T21:06:31.183Z,100456.81
2022-12-23T21:09:00.203Z,100451.56
2022-12-23T21:11:30.057Z,100450.81
2022-12-23T21:14:02.587Z,100465.78
2022-12-23T21:16:33.645Z,100467.50
2022-12-23T21:19:00.897Z,100465.88
2022-12-23T21:21:28.747Z,100465.94
2022-12-23T21:23:59.588Z,100476.75
2022-12-23T21:26:32.468Z,100478.44
2022-12-23T21:29:02.042Z,100479.31
2022-12-23T21:31:31.366Z,100483.00
2022-12-23T21:33:59.434Z,100485.81
2022-12-23T21:36:33.199Z,100502.47
2022-12-23T21:39:00.993Z,100504.34
2022-12-23T21:41:33.867Z,100508.75
2022-12-23T21:44:01.313Z,100506.13
2022-12-23T21:46:29.891Z,100508.94
2022-12-23T21:48:58.741Z,100511.50
2022-12-23T21:51:39.424Z,100516.97
2022-12-23T21:54:09.461Z,100520.59
2022-12-23T21:56:37.188Z,100521.50
2022-12-23T21:59:13.662Z,100525.13
2022-12-23T22:01:42.418Z,100531.22
2022-12-23T22:04:09.693Z,100530.50
2022-12-23T22:06:44.289Z,100527.75
2022-12-23T22:09:19.849Z,100521.59
2022-12-23T22:11:47.988Z,100541.22
2022-12-23T22:14:18.145Z,100558.00
2022-12-23T22:16:45.367Z,100556.16
2022-12-23T22:19:13.031Z,100552.84
2022-12-23T22:21:42.290Z,100564.34
2022-12-23T22:24:09.459Z,100575.97
2022-12-23T22:26:36.872Z,100576.81
2022-12-23T22:29:06.447Z,100576.16
2022-12-23T22:31:45.416Z,100577.09
2022-12-23T22:34:19.777Z,100600.13
2022-12-23T22:36:47.804Z,100586.78
2022-12-23T22:39:21.209Z,100601.03
2022-12-23T22:41:50.891Z,100597.56
2022-12-23T22:44:18.401Z,100605.63
2022-12-23T22:46:45.719Z,100604.75
2022-12-23T22:49:14.408Z,100612.06
2022-12-23T22:51:43.262Z,100613.72
2022-12-23T22:54:10.716Z,100616.41
2022-12-23T22:56:38.161Z,100611.97
2022-12-23T22:59:05.459Z,100613.84
2022-12-23T23:01:35.906Z,100619.16
2022-12-23T23:04:04.619Z,100622.69
2022-12-23T23:06:40.214Z,100621.00
2022-12-23T23:09:11.949Z,100633.53
2022-12-23T23:11:39.216Z,100634.44
2022-12-23T23:14:06.488Z,100627.41
2022-12-23T23:16:34.240Z,100631.84
2022-12-23T23:19:02.588Z,100638.94
2022-12-23T23:21:29.901Z,100638.09
2022-12-23T23:23:57.165Z,100644.34
2022-12-23T23:26:27.181Z,100650.56
2022-12-23T23:28:55.724Z,100639.94
2022-12-23T23:34:11.358Z,100634.63
2022-12-23T23:36:38.641Z,100668.19
2022-12-23T23:39:05.705Z,100652.38
2022-12-23T23:41:32.836Z,100661.34
2022-12-23T23:43:59.926Z,100670.00
2022-12-23T23:46:27.090Z,100670.97
2022-12-23T23:48:54.194Z,100678.03
2022-12-23T23:51:21.316Z,100679.75
2022-12-23T23:53:48.445Z,100685.06
2022-12-23T23:56:21.940Z,100691.25
2022-12-23T23:58:52.138Z,100689.50
